Terminal Aerodrome Forecast
Issued by NWS Goodland, KS

Home | Current Version | Previous Version | Text Only | Print | Product List | Glossary On
Versions: 1 2 3 4 5 6 7 8 9 10 11 12 13 14 15 16 17 18
854
FTUS43 KGLD 210949 AAE
TAFGLD
TAF AMD
KGLD 210949Z 2110/2206 15016KT 1/2SM -DZ FG VV002
     FM211200 14012KT 2SM -DZ BR OVC001
     FM211500 14012G17KT 6SM -DZ BR OVC006
     FM211800 14022G30KT P6SM BKN035
     FM220300 15024G32KT 5SM BR BKN020 WS015/18035KT=

USA.gov is the U.S. government's official web portal to all federal, state and local government web resources and services.